createdAt,value
2023-04-21T00:01:44.991Z,7.20
2023-04-21T00:04:14.053Z,7.20
2023-04-21T00:06:41.715Z,7.15
2023-04-21T00:09:09.762Z,7.15
2023-04-21T00:11:37.311Z,7.16
2023-04-21T00:14:04.503Z,7.23
2023-04-21T00:16:31.835Z,7.20
2023-04-21T00:18:59.491Z,7.15
2023-04-21T00:21:26.877Z,7.09
2023-04-21T00:23:54.230Z,7.03
2023-04-21T00:26:21.466Z,6.87
2023-04-21T00:28:50.715Z,6.73
2023-04-21T00:31:17.981Z,6.71
2023-04-21T00:33:45.379Z,6.70
2023-04-21T00:36:12.901Z,6.77
2023-04-21T00:38:40.044Z,6.81
2023-04-21T00:41:08.750Z,6.77
2023-04-21T00:43:58.300Z,6.67
2023-04-21T00:46:25.902Z,6.75
2023-04-21T00:48:53.924Z,6.67
2023-04-21T00:51:21.635Z,6.69
2023-04-21T00:53:50.227Z,6.62
2023-04-21T00:56:18.945Z,6.64
2023-04-21T00:58:46.378Z,6.56
2023-04-21T01:01:14.507Z,6.61
2023-04-21T01:03:47.681Z,6.60
2023-04-21T01:06:15.104Z,6.49
2023-04-21T01:08:43.316Z,6.43
2023-04-21T01:11:12.292Z,6.26
2023-04-21T01:13:41.681Z,6.27
2023-04-21T01:16:08.879Z,6.26
2023-04-21T01:18:37.029Z,6.27
2023-04-21T01:21:06.233Z,6.23
2023-04-21T01:23:35.028Z,6.24
2023-04-21T01:26:02.265Z,6.18
2023-04-21T01:28:29.404Z,6.06
2023-04-21T01:30:56.695Z,6.10
2023-04-21T01:33:24.067Z,6.13
2023-04-21T01:35:51.456Z,6.23
2023-04-21T01:38:20.442Z,6.28
2023-04-21T01:40:53.940Z,6.34
2023-04-21T01:43:25.302Z,6.18
2023-04-21T01:45:53.137Z,6.14
2023-04-21T01:48:20.458Z,6.14
2023-04-21T01:50:47.729Z,6.28
2023-04-21T01:53:15.214Z,6.43
2023-04-21T01:55:42.431Z,6.38
2023-04-21T01:58:10.461Z,6.32
2023-04-21T02:00:37.679Z,6.24
2023-04-21T02:03:05.782Z,6.14
2023-04-21T02:05:33.068Z,6.12
2023-04-21T02:08:00.374Z,6.14
2023-04-21T02:10:27.623Z,5.99
2023-04-21T02:12:54.845Z,5.92
2023-04-21T02:15:22.093Z,5.83
2023-04-21T02:17:49.817Z,5.84
2023-04-21T02:20:17.044Z,5.91
2023-04-21T02:22:44.233Z,5.89
2023-04-21T02:25:11.524Z,5.86
2023-04-21T02:27:39.538Z,5.84
2023-04-21T02:30:08.101Z,5.85
2023-04-21T02:32:35.476Z,5.87
2023-04-21T02:35:05.359Z,5.87
2023-04-21T02:37:32.559Z,5.92
2023-04-21T02:40:04.160Z,5.98
2023-04-21T02:42:34.846Z,5.96
2023-04-21T02:45:02.240Z,5.86
2023-04-21T02:47:29.489Z,5.89
2023-04-21T02:49:57.757Z,5.73
2023-04-21T02:52:24.990Z,5.64
2023-04-21T02:54:52.371Z,5.58
2023-04-21T02:57:19.579Z,5.57
2023-04-21T02:59:46.840Z,5.61
2023-04-21T03:02:14.162Z,5.68
2023-04-21T03:04:41.639Z,5.72
2023-04-21T03:07:14.727Z,5.75
2023-04-21T03:09:42.041Z,5.60
2023-04-21T03:12:09.252Z,5.52
2023-04-21T03:14:36.668Z,5.61
2023-04-21T03:17:04.002Z,5.64
2023-04-21T03:19:33.223Z,5.75
2023-04-21T03:22:00.517Z,5.76
2023-04-21T03:24:28.415Z,5.59
2023-04-21T03:26:58.235Z,5.53
2023-04-21T03:29:25.609Z,5.55
2023-04-21T03:31:53.035Z,5.49
2023-04-21T03:34:20.923Z,5.58
2023-04-21T03:36:48.350Z,5.75
2023-04-21T03:39:20.054Z,5.85
2023-04-21T03:41:48.807Z,5.83
2023-04-21T03:44:16.253Z,5.85
2023-04-21T03:46:43.542Z,5.77
2023-04-21T03:49:10.787Z,5.65
2023-04-21T03:51:37.997Z,5.69
2023-04-21T03:54:05.191Z,5.75
2023-04-21T03:56:32.397Z,5.77
2023-04-21T03:58:59.710Z,5.90
2023-04-21T04:01:27.087Z,5.99
2023-04-21T04:03:54.352Z,6.05
2023-04-21T04:06:21.870Z,6.19
2023-04-21T04:08:49.122Z,6.29
2023-04-21T04:11:16.351Z,6.47
2023-04-21T04:13:43.539Z,6.66
2023-04-21T04:16:10.781Z,6.86
2023-04-21T04:18:38.040Z,7.08
2023-04-21T04:21:09.118Z,7.22
2023-04-21T04:23:36.665Z,7.40
2023-04-21T04:26:06.837Z,7.73
2023-04-21T04:28:35.006Z,7.90
2023-04-21T04:31:03.146Z,7.71
2023-04-21T04:33:30.687Z,7.76
2023-04-21T04:35:58.392Z,8.35
2023-04-21T04:38:25.618Z,8.92
2023-04-21T04:40:57.705Z,9.39
2023-04-21T04:43:25.634Z,9.83
2023-04-21T04:45:53.421Z,10.32
2023-04-21T04:48:20.761Z,10.67
2023-04-21T04:50:48.076Z,10.90
2023-04-21T04:53:15.324Z,11.15
2023-04-21T04:55:42.559Z,11.11
2023-04-21T04:58:09.862Z,11.37
2023-04-21T05:00:37.162Z,11.37
2023-04-21T05:03:05.086Z,11.76
2023-04-21T05:05:32.664Z,11.61
2023-04-21T05:07:59.936Z,11.65
2023-04-21T05:10:27.239Z,11.86
2023-04-21T05:12:55.177Z,12.52
2023-04-21T05:15:23.150Z,12.46
2023-04-21T05:17:50.578Z,12.73
2023-04-21T05:20:17.929Z,13.18
2023-04-21T05:22:45.134Z,13.53
2023-04-21T05:25:15.747Z,13.93
2023-04-21T05:27:43.450Z,14.68
2023-04-21T05:30:11.522Z,15.15
2023-04-21T05:32:38.962Z,15.76
2023-04-21T05:35:07.092Z,16.03
2023-04-21T05:37:34.292Z,16.13
2023-04-21T05:40:01.754Z,16.07
2023-04-21T05:42:29.073Z,15.99
2023-04-21T05:44:56.327Z,15.55
2023-04-21T05:47:23.588Z,15.90
2023-04-21T05:49:55.044Z,16.29
2023-04-21T05:52:22.350Z,16.68
2023-04-21T05:54:49.677Z,16.79
2023-04-21T05:57:17.810Z,17.81
2023-04-21T05:59:45.384Z,18.24
2023-04-21T06:02:12.920Z,18.61
2023-04-21T06:04:40.560Z,19.31
2023-04-21T06:07:09.775Z,20.09
2023-04-21T06:09:37.347Z,19.96
2023-04-21T06:12:04.832Z,20.45
2023-04-21T06:14:32.285Z,20.04
2023-04-21T06:16:59.669Z,21.02
2023-04-21T06:19:26.948Z,21.29
2023-04-21T06:21:54.134Z,21.73
2023-04-21T06:24:25.595Z,22.43
2023-04-21T06:26:53.602Z,22.24
2023-04-21T06:29:21.134Z,22.54
2023-04-21T06:31:48.565Z,21.96
2023-04-21T06:34:16.405Z,22.30
2023-04-21T06:36:43.626Z,22.84
2023-04-21T06:39:10.988Z,23.17
2023-04-21T06:41:38.341Z,23.86
2023-04-21T06:44:05.593Z,24.81
2023-04-21T06:46:32.930Z,24.92
2023-04-21T06:49:00.162Z,25.17
2023-04-21T06:51:27.376Z,25.04
2023-04-21T06:53:54.629Z,25.66
2023-04-21T06:56:22.000Z,25.82
2023-04-21T06:58:49.261Z,24.95
2023-04-21T07:01:16.564Z,24.58
2023-04-21T07:03:43.961Z,25.22
2023-04-21T07:06:12.372Z,25.89
2023-04-21T07:08:41.238Z,25.97
2023-04-21T07:11:08.583Z,25.93
2023-04-21T07:13:35.856Z,25.44
2023-04-21T07:16:03.173Z,25.81
2023-04-21T07:18:30.391Z,26.54
2023-04-21T07:20:57.749Z,27.91
2023-04-21T07:23:25.046Z,27.60
2023-04-21T07:25:52.586Z,28.75
2023-04-21T07:28:19.870Z,28.70
2023-04-21T07:30:47.306Z,28.94
2023-04-21T07:33:14.720Z,28.35
2023-04-21T07:35:41.957Z,29.11
2023-04-21T07:38:09.883Z,29.00
2023-04-21T07:40:37.202Z,28.57
2023-04-21T07:43:04.585Z,29.44
2023-04-21T07:45:31.809Z,29.52
2023-04-21T07:47:59.425Z,29.34
2023-04-21T07:50:26.816Z,28.49
2023-04-21T07:52:54.295Z,28.78
2023-04-21T07:55:21.621Z,30.27
2023-04-21T07:57:49.100Z,30.92
2023-04-21T08:00:17.127Z,31.08
2023-04-21T08:02:44.457Z,31.30
2023-04-21T08:05:11.972Z,32.23
2023-04-21T08:07:39.849Z,32.20
2023-04-21T08:10:08.793Z,31.96
2023-04-21T08:12:36.031Z,31.54
2023-04-21T08:15:07.708Z,31.87
2023-04-21T08:17:35.197Z,33.70
2023-04-21T08:20:03.437Z,33.58
2023-04-21T08:22:31.466Z,33.93
2023-04-21T08:24:58.861Z,34.09
2023-04-21T08:27:26.274Z,32.38
2023-04-21T08:29:53.478Z,32.42
2023-04-21T08:32:24.633Z,32.78
2023-04-21T08:34:54.873Z,32.87
2023-04-21T08:37:23.082Z,32.60
2023-04-21T08:39:54.570Z,31.21
2023-04-21T08:42:21.878Z,32.88
2023-04-21T08:44:49.196Z,33.28
2023-04-21T08:47:16.482Z,32.05
2023-04-21T08:49:45.466Z,32.71
2023-04-21T08:52:16.767Z,33.08
2023-04-21T08:54:44.132Z,33.82
2023-04-21T08:57:15.641Z,34.82
2023-04-21T08:59:44.980Z,33.70
2023-04-21T09:02:17.401Z,33.08
2023-04-21T09:04:51.976Z,33.16
2023-04-21T09:07:32.257Z,33.91
2023-04-21T09:10:03.324Z,33.69
2023-04-21T09:12:30.861Z,33.42
2023-04-21T09:14:58.515Z,34.02
2023-04-21T09:17:36.384Z,34.54
2023-04-21T09:20:25.153Z,33.71
2023-04-21T09:22:52.642Z,35.62
2023-04-21T09:25:23.310Z,35.37
2023-04-21T09:27:51.187Z,33.34
2023-04-21T09:30:22.760Z,34.81
2023-04-21T09:32:50.120Z,35.88
2023-04-21T09:35:17.620Z,36.49
2023-04-21T09:37:44.926Z,35.00
2023-04-21T09:40:18.449Z,34.40
2023-04-21T09:42:47.335Z,29.78
2023-04-21T09:47:55.919Z,27.20
2023-04-21T09:50:51.162Z,26.06
2023-04-21T09:53:19.240Z,28.27
2023-04-21T09:55:49.689Z,28.92
2023-04-21T09:58:24.609Z,31.14
2023-04-21T10:00:53.647Z,30.63
2023-04-21T10:03:26.423Z,29.13
2023-04-21T10:05:54.211Z,26.15
2023-04-21T10:08:22.087Z,27.30
2023-04-21T10:10:49.755Z,27.13
2023-04-21T10:13:18.798Z,26.21
2023-04-21T10:15:46.206Z,25.91
2023-04-21T10:18:23.388Z,23.67
2023-04-21T10:21:08.520Z,22.62
2023-04-21T10:23:49.154Z,22.52
2023-04-21T10:26:32.753Z,21.01
2023-04-21T10:29:02.355Z,23.80
2023-04-21T10:31:39.338Z,26.32
2023-04-21T10:34:09.793Z,28.11
2023-04-21T10:36:47.049Z,29.72
2023-04-21T10:39:31.394Z,27.92
2023-04-21T10:42:25.076Z,29.15
2023-04-21T10:44:53.423Z,28.45
2023-04-21T10:47:38.792Z,25.46
2023-04-21T10:50:27.925Z,23.55
2023-04-21T10:52:59.603Z,23.20
2023-04-21T10:55:29.083Z,23.45
2023-04-21T10:57:56.735Z,24.56
2023-04-21T11:00:25.378Z,24.38
2023-04-21T11:03:02.020Z,25.32
2023-04-21T11:05:38.730Z,23.94
2023-04-21T11:08:09.697Z,23.06
2023-04-21T11:10:47.096Z,24.18
2023-04-21T11:13:14.328Z,24.04
2023-04-21T11:15:41.891Z,24.14
2023-04-21T11:18:09.944Z,24.92
2023-04-21T11:20:42.325Z,24.07
2023-04-21T11:23:09.542Z,24.23
2023-04-21T11:25:36.687Z,25.72
2023-04-21T11:28:05.016Z,26.70
2023-04-21T11:30:35.886Z,25.18
2023-04-21T11:33:03.345Z,24.64
2023-04-21T11:35:32.350Z,24.26
2023-04-21T11:38:04.515Z,24.47
2023-04-21T11:40:45.790Z,24.63
2023-04-21T11:43:13.138Z,23.99
2023-04-21T11:45:43.275Z,24.32
2023-04-21T11:48:17.977Z,25.05
2023-04-21T11:50:51.755Z,25.03
2023-04-21T11:53:20.181Z,25.81
2023-04-21T11:55:47.604Z,25.97
2023-04-21T11:58:16.564Z,25.12
2023-04-21T12:00:46.904Z,23.75
2023-04-21T12:03:14.853Z,23.43
2023-04-21T12:05:42.314Z,22.71
2023-04-21T12:08:16.437Z,22.93
2023-04-21T12:10:48.774Z,22.92
2023-04-21T12:13:28.803Z,22.60
2023-04-21T12:15:56.186Z,22.68
2023-04-21T12:18:28.385Z,22.55
2023-04-21T12:20:57.094Z,22.18
2023-04-21T12:23:24.366Z,21.96
2023-04-21T12:25:52.073Z,22.51
2023-04-21T12:28:19.320Z,22.34
2023-04-21T12:30:46.577Z,21.22
2023-04-21T12:33:13.986Z,21.38
2023-04-21T12:35:41.319Z,21.55
2023-04-21T12:38:08.539Z,21.32
2023-04-21T12:40:35.972Z,21.39
2023-04-21T12:43:03.293Z,22.18
2023-04-21T12:45:31.995Z,22.26
2023-04-21T12:48:00.028Z,22.18
2023-04-21T12:50:27.345Z,22.41
2023-04-21T12:52:55.398Z,22.58
2023-04-21T12:55:23.293Z,22.29
2023-04-21T12:57:51.019Z,22.31
2023-04-21T13:00:18.952Z,22.61
2023-04-21T13:02:46.774Z,22.52
2023-04-21T13:05:14.902Z,21.96
2023-04-21T13:07:42.226Z,22.11
2023-04-21T13:10:10.052Z,21.78
2023-04-21T13:12:37.506Z,21.91
2023-04-21T13:15:05.716Z,21.40
2023-04-21T13:17:33.013Z,21.24
2023-04-21T13:20:00.546Z,21.54
2023-04-21T13:22:27.751Z,21.30
2023-04-21T13:24:55.027Z,20.79
2023-04-21T13:27:22.506Z,20.44
2023-04-21T13:29:49.778Z,19.60
2023-04-21T13:32:17.169Z,19.30
2023-04-21T13:34:44.383Z,19.67
2023-04-21T13:37:16.098Z,20.18
2023-04-21T13:39:43.570Z,20.50
2023-04-21T13:42:11.499Z,20.74
2023-04-21T13:44:38.920Z,20.73
2023-04-21T13:47:08.779Z,20.46
2023-04-21T13:49:36.408Z,20.15
2023-04-21T13:52:03.834Z,20.55
2023-04-21T13:54:31.514Z,20.31
2023-04-21T13:56:59.304Z,20.46
2023-04-21T13:59:26.652Z,20.47
2023-04-21T14:01:53.970Z,20.47
2023-04-21T14:04:22.030Z,20.23
2023-04-21T14:06:50.970Z,19.63
2023-04-21T14:09:18.444Z,19.68
2023-04-21T14:11:45.995Z,19.71
2023-04-21T14:16:41.347Z,19.16
2023-04-21T14:19:08.701Z,18.89
2023-04-21T14:21:36.187Z,18.67
2023-04-21T14:24:03.474Z,18.72
2023-04-21T14:26:31.318Z,18.73
2023-04-21T14:29:00.134Z,18.44
2023-04-21T14:31:28.652Z,18.36
2023-04-21T14:33:56.452Z,18.39
2023-04-21T14:36:23.746Z,18.12
2023-04-21T14:38:51.094Z,18.30
2023-04-21T14:41:18.802Z,18.43
2023-04-21T14:43:47.598Z,18.40
2023-04-21T14:46:16.391Z,18.42
2023-04-21T14:48:44.755Z,18.29
2023-04-21T14:51:12.036Z,18.05
2023-04-21T14:53:40.718Z,17.85
2023-04-21T14:56:08.175Z,17.83
2023-04-21T14:58:35.443Z,17.62
2023-04-21T15:01:02.961Z,17.74
2023-04-21T15:03:30.588Z,17.59
2023-04-21T15:05:58.179Z,17.58
2023-04-21T15:08:25.652Z,17.85
2023-04-21T15:10:53.847Z,18.13
2023-04-21T15:13:21.773Z,18.06
2023-04-21T15:15:51.586Z,18.20
2023-04-21T15:18:19.088Z,18.22
2023-04-21T15:20:46.830Z,18.16
2023-04-21T15:23:14.797Z,18.18
2023-04-21T15:25:42.560Z,17.99
2023-04-21T15:28:10.027Z,18.07
2023-04-21T15:30:37.578Z,18.20
2023-04-21T15:33:05.107Z,18.12
2023-04-21T15:35:32.435Z,18.01
2023-04-21T15:37:59.667Z,18.08
2023-04-21T15:40:27.253Z,18.23
2023-04-21T15:42:54.834Z,17.93
2023-04-21T15:45:22.149Z,17.75
2023-04-21T15:47:49.448Z,17.56
2023-04-21T15:50:17.128Z,17.54
2023-04-21T15:52:44.503Z,17.35
2023-04-21T15:55:12.529Z,17.29
2023-04-21T15:57:39.863Z,17.33
2023-04-21T16:00:10.669Z,17.20
2023-04-21T16:02:38.436Z,17.46
2023-04-21T16:05:06.517Z,17.46
2023-04-21T16:07:34.271Z,17.51
2023-04-21T16:10:01.486Z,17.46
2023-04-21T16:12:28.881Z,17.22
2023-04-21T16:15:04.082Z,17.17
2023-04-21T16:17:36.955Z,17.29
2023-04-21T16:20:08.174Z,17.25
2023-04-21T16:22:35.991Z,17.24
2023-04-21T16:25:03.453Z,17.06
2023-04-21T16:27:30.871Z,16.95
2023-04-21T16:29:58.462Z,16.80
2023-04-21T16:32:26.103Z,16.85
2023-04-21T16:34:53.560Z,16.82
2023-04-21T16:37:20.805Z,16.73
2023-04-21T16:39:48.061Z,16.59
2023-04-21T16:42:15.759Z,16.51
2023-04-21T16:44:42.940Z,16.43
2023-04-21T16:47:10.368Z,16.41
2023-04-21T16:49:37.644Z,16.35
2023-04-21T16:52:05.005Z,16.33
2023-04-21T16:54:32.464Z,16.34
2023-04-21T16:56:59.756Z,16.11
2023-04-21T16:59:27.041Z,15.99
2023-04-21T17:01:54.269Z,15.88
2023-04-21T17:04:21.653Z,15.84
2023-04-21T17:06:48.940Z,15.72
2023-04-21T17:09:16.552Z,15.54
2023-04-21T17:11:45.973Z,15.50
2023-04-21T17:14:13.345Z,15.59
2023-04-21T17:16:40.634Z,15.45
2023-04-21T17:19:07.917Z,15.41
2023-04-21T17:21:35.193Z,15.32
2023-04-21T17:24:02.422Z,15.23
2023-04-21T17:26:29.729Z,15.16
2023-04-21T17:28:57.677Z,15.03
2023-04-21T17:31:25.047Z,14.90
2023-04-21T17:33:53.452Z,14.69
2023-04-21T17:36:20.951Z,14.55
2023-04-21T17:38:49.104Z,14.36
2023-04-21T17:41:16.757Z,14.25
2023-04-21T17:43:44.206Z,14.12
2023-04-21T17:46:11.646Z,13.95
2023-04-21T17:48:39.112Z,13.80
2023-04-21T17:51:06.690Z,13.67
2023-04-21T17:53:34.058Z,13.64
2023-04-21T17:56:01.734Z,13.59
2023-04-21T17:58:29.358Z,13.51
2023-04-21T18:00:57.172Z,13.45
2023-04-21T18:03:24.969Z,13.37
2023-04-21T18:05:52.720Z,13.25
2023-04-21T18:08:21.097Z,13.17
2023-04-21T18:10:48.527Z,13.13
2023-04-21T18:13:15.971Z,13.09
2023-04-21T18:15:43.235Z,13.07
2023-04-21T18:18:10.715Z,12.94
2023-04-21T18:20:38.324Z,12.85
2023-04-21T18:23:05.785Z,12.82
2023-04-21T18:25:42.134Z,12.83
2023-04-21T18:28:13.517Z,12.75
2023-04-21T18:30:41.455Z,12.65
2023-04-21T18:33:12.195Z,12.59
2023-04-21T18:35:41.690Z,12.45
2023-04-21T18:38:11.658Z,12.35
2023-04-21T18:40:40.795Z,12.35
2023-04-21T18:43:09.875Z,12.44
2023-04-21T18:45:38.677Z,12.48
2023-04-21T18:48:06.434Z,12.53
2023-04-21T18:50:39.360Z,12.52
2023-04-21T18:53:08.009Z,12.46
2023-04-21T18:55:36.471Z,12.54
2023-04-21T18:58:04.375Z,12.66
2023-04-21T19:00:32.188Z,12.70
2023-04-21T19:03:04.322Z,12.65
2023-04-21T19:05:32.231Z,12.55
2023-04-21T19:07:59.394Z,12.25
2023-04-21T19:10:27.796Z,11.84
2023-04-21T19:12:55.333Z,11.57
2023-04-21T19:15:23.084Z,11.44
2023-04-21T19:17:50.435Z,11.34
2023-04-21T19:20:18.640Z,11.30
2023-04-21T19:22:45.856Z,11.16
2023-04-21T19:25:13.210Z,11.01
2023-04-21T19:27:41.651Z,10.99
2023-04-21T19:30:09.853Z,11.02
2023-04-21T19:32:37.872Z,11.00
2023-04-21T19:35:05.776Z,10.99
2023-04-21T19:37:35.006Z,10.99
2023-04-21T19:40:03.981Z,10.96
2023-04-21T19:42:31.401Z,11.20
2023-04-21T19:44:58.845Z,11.29
2023-04-21T19:47:26.359Z,11.36
2023-04-21T19:49:53.970Z,11.52
2023-04-21T19:52:21.314Z,11.58
2023-04-21T19:54:48.633Z,11.52
2023-04-21T19:57:16.037Z,11.43
2023-04-21T19:59:43.315Z,11.36
2023-04-21T20:02:10.698Z,11.16
2023-04-21T20:04:38.378Z,10.95
2023-04-21T20:07:05.811Z,10.95
2023-04-21T20:09:33.009Z,10.89
2023-04-21T20:12:00.399Z,10.69
2023-04-21T20:14:27.704Z,10.46
2023-04-21T20:16:54.964Z,10.31
2023-04-21T20:19:23.020Z,10.29
2023-04-21T20:21:50.278Z,10.31
2023-04-21T20:24:17.576Z,10.26
2023-04-21T20:26:45.552Z,10.23
2023-04-21T20:29:12.920Z,10.14
2023-04-21T20:31:40.148Z,10.00
2023-04-21T20:34:08.464Z,9.85
2023-04-21T20:36:37.188Z,9.76
2023-04-21T20:39:06.610Z,9.62
2023-04-21T20:41:34.003Z,9.54
2023-04-21T20:44:01.668Z,9.49
2023-04-21T20:46:31.708Z,9.46
2023-04-21T20:48:58.994Z,9.47
2023-04-21T20:51:26.938Z,9.54
2023-04-21T20:53:54.186Z,9.52
2023-04-21T20:56:21.777Z,9.48
2023-04-21T20:58:49.195Z,9.43
2023-04-21T21:01:16.791Z,9.32
2023-04-21T21:03:47.441Z,9.18
2023-04-21T21:06:14.978Z,9.04
2023-04-21T21:08:42.720Z,8.98
2023-04-21T21:11:09.946Z,9.02
2023-04-21T21:13:37.209Z,9.03
2023-04-21T21:16:04.929Z,9.03
2023-04-21T21:18:34.668Z,9.00
2023-04-21T21:21:02.322Z,8.92
2023-04-21T21:23:29.559Z,8.76
2023-04-21T21:25:58.685Z,8.78
2023-04-21T21:28:26.399Z,8.82
2023-04-21T21:30:53.763Z,9.00
2023-04-21T21:33:21.024Z,9.04
2023-04-21T21:35:48.954Z,9.16
2023-04-21T21:38:16.780Z,9.18
2023-04-21T21:40:44.241Z,9.11
2023-04-21T21:43:11.498Z,8.95
2023-04-21T21:45:39.054Z,8.87
2023-04-21T21:48:06.465Z,8.75
2023-04-21T21:50:33.865Z,8.60
2023-04-21T21:53:01.189Z,8.53
2023-04-21T21:55:28.730Z,8.40
2023-04-21T21:57:56.069Z,8.38
2023-04-21T22:00:23.963Z,8.43
2023-04-21T22:02:51.442Z,8.44
2023-04-21T22:05:18.942Z,8.52
2023-04-21T22:07:46.177Z,8.42
2023-04-21T22:10:13.575Z,8.45
2023-04-21T22:12:41.125Z,8.38
2023-04-21T22:15:09.476Z,8.31
2023-04-21T22:17:38.078Z,8.34
2023-04-21T22:20:08.413Z,8.24
2023-04-21T22:22:36.416Z,8.21
2023-04-21T22:25:04.122Z,8.22
2023-04-21T22:27:33.657Z,8.20
2023-04-21T22:30:02.576Z,8.23
2023-04-21T22:32:32.362Z,8.23
2023-04-21T22:35:00.535Z,8.13
2023-04-21T22:37:28.569Z,8.10
2023-04-21T22:39:57.492Z,8.01
2023-04-21T22:42:24.841Z,7.82
2023-04-21T22:44:52.180Z,7.70
2023-04-21T22:47:19.498Z,7.70
2023-04-21T22:49:46.816Z,7.71
2023-04-21T22:52:14.093Z,7.61
2023-04-21T22:54:41.459Z,7.63
2023-04-21T22:57:08.967Z,7.70
2023-04-21T22:59:36.520Z,7.53
2023-04-21T23:02:05.510Z,7.50
2023-04-21T23:04:32.958Z,7.40
2023-04-21T23:07:00.186Z,7.44
2023-04-21T23:09:27.702Z,7.53
2023-04-21T23:11:55.011Z,7.49
2023-04-21T23:14:22.336Z,7.39
2023-04-21T23:16:49.684Z,7.47
2023-04-21T23:19:16.967Z,7.49
2023-04-21T23:21:44.558Z,7.42
2023-04-21T23:24:11.892Z,7.26
2023-04-21T23:26:39.118Z,7.28
2023-04-21T23:29:06.819Z,7.29
2023-04-21T23:31:34.281Z,7.19
2023-04-21T23:34:01.628Z,7.15
2023-04-21T23:36:28.829Z,7.13
2023-04-21T23:38:56.181Z,7.20
2023-04-21T23:41:23.539Z,7.12
2023-04-21T23:43:50.719Z,7.07
2023-04-21T23:46:17.963Z,7.00
2023-04-21T23:48:45.234Z,7.03
2023-04-21T23:51:12.799Z,7.07
2023-04-21T23:53:40.092Z,7.09
2023-04-21T23:56:07.535Z,6.99
2023-04-21T23:58:34.925Z,6.79
